sensor_id;sensor_type;location;lat;lon;timestamp;P1;durP1;ratioP1;P2;durP2;ratioP2
20181;SDS011;10250;50.756;6.172;2023-07-29T00:01:29;3.70;;;1.40;;
20181;SDS011;10250;50.756;6.172;2023-07-29T00:03:30;3.20;;;1.43;;
20181;SDS011;10250;50.756;6.172;2023-07-29T00:05:32;3.00;;;1.40;;
20181;SDS011;10250;50.756;6.172;2023-07-29T00:07:32;5.83;;;1.53;;
20181;SDS011;10250;50.756;6.172;2023-07-29T00:09:33;3.33;;;1.40;;
20181;SDS011;10250;50.756;6.172;2023-07-29T00:11:33;2.83;;;1.30;;
20181;SDS011;10250;50.756;6.172;2023-07-29T00:13:35;3.53;;;1.37;;
20181;SDS011;10250;50.756;6.172;2023-07-29T00:15:35;5.00;;;1.60;;
20181;SDS011;10250;50.756;6.172;2023-07-29T00:17:36;3.37;;;1.43;;
20181;SDS011;10250;50.756;6.172;2023-07-29T00:19:36;2.87;;;1.37;;
20181;SDS011;10250;50.756;6.172;2023-07-29T00:21:37;3.53;;;1.53;;
20181;SDS011;10250;50.756;6.172;2023-07-29T00:23:38;3.90;;;1.50;;
20181;SDS011;10250;50.756;6.172;2023-07-29T00:25:39;6.07;;;1.60;;
20181;SDS011;10250;50.756;6.172;2023-07-29T00:27:39;4.33;;;1.50;;
20181;SDS011;10250;50.756;6.172;2023-07-29T00:29:40;4.00;;;1.43;;
20181;SDS011;10250;50.756;6.172;2023-07-29T00:31:40;3.50;;;1.47;;
20181;SDS011;10250;50.756;6.172;2023-07-29T00:33:41;5.97;;;1.40;;
20181;SDS011;10250;50.756;6.172;2023-07-29T00:35:41;4.93;;;1.80;;
20181;SDS011;10250;50.756;6.172;2023-07-29T00:37:42;5.43;;;1.77;;
20181;SDS011;10250;50.756;6.172;2023-07-29T00:39:43;3.67;;;1.50;;
20181;SDS011;10250;50.756;6.172;2023-07-29T00:41:43;8.93;;;1.93;;
20181;SDS011;10250;50.756;6.172;2023-07-29T00:43:44;5.03;;;1.67;;
20181;SDS011;10250;50.756;6.172;2023-07-29T00:45:45;8.33;;;1.90;;
20181;SDS011;10250;50.756;6.172;2023-07-29T00:47:46;9.10;;;1.83;;
20181;SDS011;10250;50.756;6.172;2023-07-29T00:49:48;11.37;;;2.00;;
20181;SDS011;10250;50.756;6.172;2023-07-29T00:51:48;5.23;;;1.83;;
20181;SDS011;10250;50.756;6.172;2023-07-29T00:53:49;10.50;;;1.90;;
20181;SDS011;10250;50.756;6.172;2023-07-29T00:55:50;8.17;;;2.03;;
20181;SDS011;10250;50.756;6.172;2023-07-29T00:57:51;7.53;;;1.80;;
20181;SDS011;10250;50.756;6.172;2023-07-29T00:59:54;6.87;;;1.80;;
20181;SDS011;10250;50.756;6.172;2023-07-29T01:01:55;6.10;;;1.80;;
20181;SDS011;10250;50.756;6.172;2023-07-29T01:03:56;4.33;;;1.47;;
20181;SDS011;10250;50.756;6.172;2023-07-29T01:08:18;5.30;;;1.67;;
20181;SDS011;10250;50.756;6.172;2023-07-29T01:10:50;4.97;;;1.80;;
20181;SDS011;10250;50.756;6.172;2023-07-29T01:13:13;7.57;;;1.67;;
20181;SDS011;10250;50.756;6.172;2023-07-29T01:17:47;3.80;;;1.40;;
20181;SDS011;10250;50.756;6.172;2023-07-29T01:22:08;5.80;;;1.47;;
20181;SDS011;10250;50.756;6.172;2023-07-29T01:24:10;2.83;;;1.30;;
20181;SDS011;10250;50.756;6.172;2023-07-29T01:26:11;3.43;;;1.23;;
20181;SDS011;10250;50.756;6.172;2023-07-29T01:28:12;4.10;;;1.30;;
20181;SDS011;10250;50.756;6.172;2023-07-29T01:30:12;3.70;;;1.00;;
20181;SDS011;10250;50.756;6.172;2023-07-29T01:32:20;3.40;;;1.10;;
20181;SDS011;10250;50.756;6.172;2023-07-29T01:34:48;2.53;;;1.10;;
20181;SDS011;10250;50.756;6.172;2023-07-29T01:36:57;3.23;;;1.20;;
20181;SDS011;10250;50.756;6.172;2023-07-29T01:38:59;3.60;;;1.23;;
20181;SDS011;10250;50.756;6.172;2023-07-29T01:41:03;3.23;;;1.20;;
20181;SDS011;10250;50.756;6.172;2023-07-29T01:43:07;3.00;;;1.20;;
20181;SDS011;10250;50.756;6.172;2023-07-29T01:45:08;3.63;;;1.10;;
20181;SDS011;10250;50.756;6.172;2023-07-29T01:47:10;3.07;;;1.07;;
20181;SDS011;10250;50.756;6.172;2023-07-29T01:49:10;4.17;;;1.20;;
20181;SDS011;10250;50.756;6.172;2023-07-29T01:51:11;1.40;;;0.80;;
20181;SDS011;10250;50.756;6.172;2023-07-29T01:53:13;4.73;;;1.10;;
20181;SDS011;10250;50.756;6.172;2023-07-29T01:55:13;3.20;;;1.03;;
20181;SDS011;10250;50.756;6.172;2023-07-29T01:57:14;3.17;;;1.07;;
20181;SDS011;10250;50.756;6.172;2023-07-29T01:59:15;4.67;;;1.20;;
20181;SDS011;10250;50.756;6.172;2023-07-29T02:01:16;3.13;;;1.20;;
20181;SDS011;10250;50.756;6.172;2023-07-29T02:03:18;3.03;;;1.20;;
20181;SDS011;10250;50.756;6.172;2023-07-29T02:05:18;3.63;;;1.10;;
20181;SDS011;10250;50.756;6.172;2023-07-29T02:07:19;3.87;;;1.27;;
20181;SDS011;10250;50.756;6.172;2023-07-29T02:09:19;3.10;;;1.10;;
20181;SDS011;10250;50.756;6.172;2023-07-29T02:11:20;3.77;;;1.30;;
20181;SDS011;10250;50.756;6.172;2023-07-29T02:13:27;4.10;;;1.40;;
20181;SDS011;10250;50.756;6.172;2023-07-29T02:15:27;4.13;;;1.20;;
20181;SDS011;10250;50.756;6.172;2023-07-29T02:17:28;10.67;;;1.40;;
20181;SDS011;10250;50.756;6.172;2023-07-29T02:19:29;4.90;;;1.40;;
20181;SDS011;10250;50.756;6.172;2023-07-29T02:21:29;3.57;;;1.10;;
20181;SDS011;10250;50.756;6.172;2023-07-29T02:23:30;4.00;;;1.30;;
20181;SDS011;10250;50.756;6.172;2023-07-29T02:25:31;2.60;;;1.10;;
20181;SDS011;10250;50.756;6.172;2023-07-29T02:27:34;4.63;;;1.30;;
20181;SDS011;10250;50.756;6.172;2023-07-29T02:29:35;3.23;;;1.23;;
20181;SDS011;10250;50.756;6.172;2023-07-29T02:31:36;3.93;;;1.40;;
20181;SDS011;10250;50.756;6.172;2023-07-29T02:33:37;7.10;;;1.70;;
20181;SDS011;10250;50.756;6.172;2023-07-29T02:35:38;9.03;;;1.53;;
20181;SDS011;10250;50.756;6.172;2023-07-29T02:37:39;5.97;;;1.60;;
20181;SDS011;10250;50.756;6.172;2023-07-29T02:39:39;5.23;;;1.60;;
20181;SDS011;10250;50.756;6.172;2023-07-29T02:43:49;4.40;;;1.47;;
20181;SDS011;10250;50.756;6.172;2023-07-29T02:45:50;4.37;;;1.43;;
20181;SDS011;10250;50.756;6.172;2023-07-29T02:47:50;6.00;;;1.60;;
20181;SDS011;10250;50.756;6.172;2023-07-29T02:49:51;6.03;;;1.40;;
20181;SDS011;10250;50.756;6.172;2023-07-29T02:51:51;5.73;;;1.60;;
20181;SDS011;10250;50.756;6.172;2023-07-29T02:53:52;4.97;;;1.23;;
20181;SDS011;10250;50.756;6.172;2023-07-29T02:55:53;4.60;;;1.40;;
20181;SDS011;10250;50.756;6.172;2023-07-29T02:57:54;4.87;;;1.30;;
20181;SDS011;10250;50.756;6.172;2023-07-29T02:59:55;4.30;;;1.50;;
20181;SDS011;10250;50.756;6.172;2023-07-29T03:01:55;7.90;;;1.60;;
20181;SDS011;10250;50.756;6.172;2023-07-29T03:03:56;4.97;;;1.53;;
20181;SDS011;10250;50.756;6.172;2023-07-29T03:06:01;4.47;;;1.70;;
20181;SDS011;10250;50.756;6.172;2023-07-29T03:08:06;5.80;;;1.60;;
20181;SDS011;10250;50.756;6.172;2023-07-29T03:10:07;3.73;;;1.40;;
20181;SDS011;10250;50.756;6.172;2023-07-29T03:12:08;5.23;;;1.60;;
20181;SDS011;10250;50.756;6.172;2023-07-29T03:14:08;5.17;;;1.50;;
20181;SDS011;10250;50.756;6.172;2023-07-29T03:16:09;6.07;;;1.70;;
20181;SDS011;10250;50.756;6.172;2023-07-29T03:18:15;9.10;;;1.70;;
20181;SDS011;10250;50.756;6.172;2023-07-29T03:20:15;4.33;;;1.57;;
20181;SDS011;10250;50.756;6.172;2023-07-29T03:22:17;5.53;;;1.70;;
20181;SDS011;10250;50.756;6.172;2023-07-29T03:24:18;6.57;;;1.73;;
20181;SDS011;10250;50.756;6.172;2023-07-29T03:26:18;6.13;;;1.60;;
20181;SDS011;10250;50.756;6.172;2023-07-29T03:28:19;5.60;;;1.60;;
20181;SDS011;10250;50.756;6.172;2023-07-29T03:30:20;6.10;;;1.80;;
20181;SDS011;10250;50.756;6.172;2023-07-29T03:32:22;9.53;;;1.90;;
20181;SDS011;10250;50.756;6.172;2023-07-29T03:34:22;8.30;;;1.83;;
20181;SDS011;10250;50.756;6.172;2023-07-29T03:36:23;5.70;;;1.77;;
20181;SDS011;10250;50.756;6.172;2023-07-29T03:38:25;7.33;;;1.70;;
20181;SDS011;10250;50.756;6.172;2023-07-29T03:40:26;5.43;;;1.60;;
20181;SDS011;10250;50.756;6.172;2023-07-29T03:42:27;5.57;;;1.70;;
20181;SDS011;10250;50.756;6.172;2023-07-29T03:44:27;5.27;;;1.67;;
20181;SDS011;10250;50.756;6.172;2023-07-29T03:46:28;5.13;;;1.70;;
20181;SDS011;10250;50.756;6.172;2023-07-29T03:48:28;5.70;;;1.70;;
20181;SDS011;10250;50.756;6.172;2023-07-29T03:50:33;5.70;;;1.63;;
20181;SDS011;10250;50.756;6.172;2023-07-29T03:52:37;5.47;;;1.60;;
20181;SDS011;10250;50.756;6.172;2023-07-29T03:54:38;6.50;;;1.87;;
20181;SDS011;10250;50.756;6.172;2023-07-29T03:56:39;5.33;;;1.57;;
20181;SDS011;10250;50.756;6.172;2023-07-29T03:58:39;7.27;;;1.80;;
20181;SDS011;10250;50.756;6.172;2023-07-29T04:00:40;6.53;;;2.00;;
20181;SDS011;10250;50.756;6.172;2023-07-29T04:02:41;6.27;;;1.90;;
20181;SDS011;10250;50.756;6.172;2023-07-29T04:04:42;6.87;;;1.70;;
20181;SDS011;10250;50.756;6.172;2023-07-29T04:06:44;7.03;;;2.00;;
20181;SDS011;10250;50.756;6.172;2023-07-29T04:08:44;8.17;;;2.20;;
20181;SDS011;10250;50.756;6.172;2023-07-29T04:10:45;6.73;;;1.93;;
20181;SDS011;10250;50.756;6.172;2023-07-29T04:12:45;8.47;;;2.13;;
20181;SDS011;10250;50.756;6.172;2023-07-29T04:14:46;7.63;;;2.03;;
20181;SDS011;10250;50.756;6.172;2023-07-29T04:16:47;5.63;;;1.90;;
20181;SDS011;10250;50.756;6.172;2023-07-29T04:18:49;7.40;;;2.10;;
20181;SDS011;10250;50.756;6.172;2023-07-29T04:20:49;6.30;;;1.90;;
20181;SDS011;10250;50.756;6.172;2023-07-29T04:22:50;8.10;;;2.10;;
20181;SDS011;10250;50.756;6.172;2023-07-29T04:24:51;8.93;;;2.50;;
20181;SDS011;10250;50.756;6.172;2023-07-29T04:26:51;8.93;;;2.47;;
20181;SDS011;10250;50.756;6.172;2023-07-29T04:28:52;9.47;;;2.67;;
20181;SDS011;10250;50.756;6.172;2023-07-29T04:30:52;10.20;;;2.40;;
20181;SDS011;10250;50.756;6.172;2023-07-29T04:32:53;9.77;;;2.33;;
20181;SDS011;10250;50.756;6.172;2023-07-29T04:34:54;6.93;;;2.10;;
20181;SDS011;10250;50.756;6.172;2023-07-29T04:36:54;10.17;;;2.40;;
20181;SDS011;10250;50.756;6.172;2023-07-29T04:38:55;8.23;;;2.70;;
20181;SDS011;10250;50.756;6.172;2023-07-29T04:40:55;8.33;;;2.27;;
20181;SDS011;10250;50.756;6.172;2023-07-29T04:42:56;8.13;;;2.57;;
20181;SDS011;10250;50.756;6.172;2023-07-29T04:44:57;10.13;;;2.97;;
20181;SDS011;10250;50.756;6.172;2023-07-29T04:46:57;9.30;;;2.50;;
20181;SDS011;10250;50.756;6.172;2023-07-29T04:48:58;8.47;;;2.33;;
20181;SDS011;10250;50.756;6.172;2023-07-29T04:50:59;10.50;;;3.20;;
20181;SDS011;10250;50.756;6.172;2023-07-29T04:53:00;10.43;;;2.40;;
20181;SDS011;10250;50.756;6.172;2023-07-29T04:55:00;10.87;;;3.00;;
20181;SDS011;10250;50.756;6.172;2023-07-29T04:57:01;12.47;;;3.07;;
20181;SDS011;10250;50.756;6.172;2023-07-29T04:59:01;12.93;;;3.23;;
20181;SDS011;10250;50.756;6.172;2023-07-29T05:01:02;11.83;;;3.23;;
20181;SDS011;10250;50.756;6.172;2023-07-29T05:03:04;10.20;;;3.10;;
20181;SDS011;10250;50.756;6.172;2023-07-29T05:05:04;13.00;;;3.97;;
20181;SDS011;10250;50.756;6.172;2023-07-29T05:07:05;11.63;;;3.70;;
20181;SDS011;10250;50.756;6.172;2023-07-29T05:09:13;11.90;;;3.90;;
20181;SDS011;10250;50.756;6.172;2023-07-29T05:11:15;12.17;;;3.70;;
20181;SDS011;10250;50.756;6.172;2023-07-29T05:13:16;14.10;;;3.87;;
20181;SDS011;10250;50.756;6.172;2023-07-29T05:15:17;13.50;;;4.03;;
20181;SDS011;10250;50.756;6.172;2023-07-29T05:17:18;13.77;;;4.00;;
20181;SDS011;10250;50.756;6.172;2023-07-29T05:19:19;14.33;;;4.00;;
20181;SDS011;10250;50.756;6.172;2023-07-29T05:21:20;11.37;;;3.60;;
20181;SDS011;10250;50.756;6.172;2023-07-29T05:23:20;13.00;;;3.97;;
20181;SDS011;10250;50.756;6.172;2023-07-29T05:25:21;12.43;;;3.33;;
20181;SDS011;10250;50.756;6.172;2023-07-29T05:27:22;11.03;;;3.50;;
20181;SDS011;10250;50.756;6.172;2023-07-29T05:29:22;11.53;;;3.70;;
20181;SDS011;10250;50.756;6.172;2023-07-29T05:31:23;10.90;;;3.40;;
20181;SDS011;10250;50.756;6.172;2023-07-29T05:33:23;10.97;;;3.37;;
20181;SDS011;10250;50.756;6.172;2023-07-29T05:35:24;10.17;;;3.27;;
20181;SDS011;10250;50.756;6.172;2023-07-29T05:37:25;12.07;;;3.50;;
20181;SDS011;10250;50.756;6.172;2023-07-29T05:39:25;10.00;;;3.10;;
20181;SDS011;10250;50.756;6.172;2023-07-29T05:41:26;10.37;;;2.90;;
20181;SDS011;10250;50.756;6.172;2023-07-29T05:43:28;11.10;;;3.50;;
20181;SDS011;10250;50.756;6.172;2023-07-29T05:45:29;10.80;;;3.40;;
20181;SDS011;10250;50.756;6.172;2023-07-29T05:47:31;11.70;;;3.00;;
20181;SDS011;10250;50.756;6.172;2023-07-29T05:49:31;13.53;;;3.47;;
20181;SDS011;10250;50.756;6.172;2023-07-29T05:51:32;9.23;;;3.20;;
20181;SDS011;10250;50.756;6.172;2023-07-29T05:53:32;9.67;;;2.90;;
20181;SDS011;10250;50.756;6.172;2023-07-29T05:55:33;11.83;;;3.70;;
20181;SDS011;10250;50.756;6.172;2023-07-29T05:57:34;11.70;;;3.70;;
20181;SDS011;10250;50.756;6.172;2023-07-29T05:59:34;11.10;;;3.03;;
20181;SDS011;10250;50.756;6.172;2023-07-29T06:01:35;8.77;;;2.73;;
20181;SDS011;10250;50.756;6.172;2023-07-29T06:03:35;10.70;;;3.20;;
20181;SDS011;10250;50.756;6.172;2023-07-29T06:05:36;9.53;;;2.83;;
20181;SDS011;10250;50.756;6.172;2023-07-29T06:07:37;9.03;;;2.47;;
20181;SDS011;10250;50.756;6.172;2023-07-29T06:09:38;9.27;;;2.73;;
20181;SDS011;10250;50.756;6.172;2023-07-29T06:11:40;13.17;;;3.03;;
20181;SDS011;10250;50.756;6.172;2023-07-29T06:13:40;9.67;;;2.87;;
20181;SDS011;10250;50.756;6.172;2023-07-29T06:15:41;8.27;;;2.33;;
20181;SDS011;10250;50.756;6.172;2023-07-29T06:17:41;10.83;;;2.80;;
20181;SDS011;10250;50.756;6.172;2023-07-29T06:19:42;9.40;;;2.57;;
20181;SDS011;10250;50.756;6.172;2023-07-29T06:21:43;9.33;;;2.33;;
20181;SDS011;10250;50.756;6.172;2023-07-29T06:23:44;9.00;;;2.67;;
20181;SDS011;10250;50.756;6.172;2023-07-29T06:25:44;8.17;;;2.60;;
20181;SDS011;10250;50.756;6.172;2023-07-29T06:27:45;10.00;;;2.90;;
20181;SDS011;10250;50.756;6.172;2023-07-29T06:29:45;9.43;;;2.83;;
20181;SDS011;10250;50.756;6.172;2023-07-29T06:31:46;8.33;;;2.57;;
20181;SDS011;10250;50.756;6.172;2023-07-29T06:33:47;8.90;;;2.60;;
20181;SDS011;10250;50.756;6.172;2023-07-29T06:35:48;8.77;;;2.53;;
20181;SDS011;10250;50.756;6.172;2023-07-29T06:37:49;8.60;;;2.40;;
20181;SDS011;10250;50.756;6.172;2023-07-29T06:39:49;8.17;;;2.33;;
20181;SDS011;10250;50.756;6.172;2023-07-29T06:41:50;8.67;;;2.30;;
20181;SDS011;10250;50.756;6.172;2023-07-29T06:43:50;9.43;;;2.53;;
20181;SDS011;10250;50.756;6.172;2023-07-29T06:45:51;8.97;;;2.13;;
20181;SDS011;10250;50.756;6.172;2023-07-29T06:47:52;6.87;;;2.20;;
20181;SDS011;10250;50.756;6.172;2023-07-29T06:49:53;9.00;;;2.23;;
20181;SDS011;10250;50.756;6.172;2023-07-29T06:51:54;10.70;;;2.30;;
20181;SDS011;10250;50.756;6.172;2023-07-29T06:53:55;7.67;;;2.27;;
20181;SDS011;10250;50.756;6.172;2023-07-29T06:55:55;9.57;;;2.40;;
20181;SDS011;10250;50.756;6.172;2023-07-29T06:57:56;11.20;;;2.30;;
20181;SDS011;10250;50.756;6.172;2023-07-29T06:59:56;8.17;;;2.20;;
20181;SDS011;10250;50.756;6.172;2023-07-29T07:01:57;6.87;;;2.03;;
20181;SDS011;10250;50.756;6.172;2023-07-29T07:03:59;8.27;;;2.23;;
20181;SDS011;10250;50.756;6.172;2023-07-29T07:06:00;6.97;;;2.07;;
20181;SDS011;10250;50.756;6.172;2023-07-29T07:08:01;6.70;;;2.10;;
20181;SDS011;10250;50.756;6.172;2023-07-29T07:10:01;9.43;;;2.33;;
20181;SDS011;10250;50.756;6.172;2023-07-29T07:12:02;8.53;;;2.17;;
20181;SDS011;10250;50.756;6.172;2023-07-29T07:14:03;7.50;;;2.07;;
20181;SDS011;10250;50.756;6.172;2023-07-29T07:16:03;6.60;;;2.10;;
20181;SDS011;10250;50.756;6.172;2023-07-29T07:18:04;8.97;;;2.30;;
20181;SDS011;10250;50.756;6.172;2023-07-29T07:20:05;6.80;;;2.00;;
20181;SDS011;10250;50.756;6.172;2023-07-29T07:22:06;7.50;;;2.30;;
20181;SDS011;10250;50.756;6.172;2023-07-29T07:24:07;8.03;;;2.20;;
20181;SDS011;10250;50.756;6.172;2023-07-29T07:26:07;8.23;;;2.20;;
20181;SDS011;10250;50.756;6.172;2023-07-29T07:28:09;8.47;;;2.20;;
20181;SDS011;10250;50.756;6.172;2023-07-29T07:30:10;7.27;;;2.17;;
20181;SDS011;10250;50.756;6.172;2023-07-29T07:32:10;7.90;;;2.20;;
20181;SDS011;10250;50.756;6.172;2023-07-29T07:34:11;8.30;;;2.03;;
20181;SDS011;10250;50.756;6.172;2023-07-29T07:36:12;6.60;;;2.00;;
20181;SDS011;10250;50.756;6.172;2023-07-29T07:38:12;7.53;;;2.00;;
20181;SDS011;10250;50.756;6.172;2023-07-29T07:40:13;8.43;;;2.00;;
20181;SDS011;10250;50.756;6.172;2023-07-29T07:42:14;7.30;;;1.83;;
20181;SDS011;10250;50.756;6.172;2023-07-29T07:44:14;8.00;;;1.97;;
20181;SDS011;10250;50.756;6.172;2023-07-29T07:46:17;5.57;;;1.80;;
20181;SDS011;10250;50.756;6.172;2023-07-29T07:48:18;6.17;;;1.53;;
20181;SDS011;10250;50.756;6.172;2023-07-29T07:50:20;5.73;;;1.77;;
20181;SDS011;10250;50.756;6.172;2023-07-29T07:52:20;7.77;;;1.73;;
20181;SDS011;10250;50.756;6.172;2023-07-29T07:54:21;8.60;;;1.80;;
20181;SDS011;10250;50.756;6.172;2023-07-29T07:56:22;6.13;;;1.70;;
20181;SDS011;10250;50.756;6.172;2023-07-29T07:58:22;4.50;;;1.50;;
20181;SDS011;10250;50.756;6.172;2023-07-29T08:00:23;6.03;;;1.50;;
20181;SDS011;10250;50.756;6.172;2023-07-29T08:02:23;7.03;;;1.80;;
20181;SDS011;10250;50.756;6.172;2023-07-29T08:04:24;5.87;;;1.57;;
20181;SDS011;10250;50.756;6.172;2023-07-29T08:06:24;5.33;;;1.57;;
20181;SDS011;10250;50.756;6.172;2023-07-29T08:08:25;6.73;;;1.60;;
20181;SDS011;10250;50.756;6.172;2023-07-29T08:10:26;5.00;;;1.50;;
20181;SDS011;10250;50.756;6.172;2023-07-29T08:12:27;4.53;;;1.40;;
20181;SDS011;10250;50.756;6.172;2023-07-29T08:14:27;7.37;;;1.60;;
20181;SDS011;10250;50.756;6.172;2023-07-29T08:16:28;6.17;;;1.60;;
20181;SDS011;10250;50.756;6.172;2023-07-29T08:18:29;5.37;;;1.60;;
20181;SDS011;10250;50.756;6.172;2023-07-29T08:20:29;6.30;;;1.67;;
20181;SDS011;10250;50.756;6.172;2023-07-29T08:22:30;5.87;;;1.70;;
20181;SDS011;10250;50.756;6.172;2023-07-29T08:24:30;5.20;;;1.53;;
20181;SDS011;10250;50.756;6.172;2023-07-29T08:26:31;6.43;;;1.67;;
20181;SDS011;10250;50.756;6.172;2023-07-29T08:28:35;4.53;;;1.50;;
20181;SDS011;10250;50.756;6.172;2023-07-29T08:30:39;4.67;;;1.70;;
20181;SDS011;10250;50.756;6.172;2023-07-29T08:32:40;5.47;;;1.37;;
20181;SDS011;10250;50.756;6.172;2023-07-29T08:34:44;4.00;;;1.30;;
20181;SDS011;10250;50.756;6.172;2023-07-29T08:36:45;9.10;;;1.60;;
20181;SDS011;10250;50.756;6.172;2023-07-29T08:38:45;4.93;;;1.60;;
20181;SDS011;10250;50.756;6.172;2023-07-29T08:40:50;5.87;;;1.37;;
20181;SDS011;10250;50.756;6.172;2023-07-29T08:42:57;7.07;;;1.70;;
20181;SDS011;10250;50.756;6.172;2023-07-29T08:45:01;4.80;;;1.50;;
20181;SDS011;10250;50.756;6.172;2023-07-29T08:47:08;5.97;;;1.80;;
20181;SDS011;10250;50.756;6.172;2023-07-29T08:49:09;8.13;;;2.50;;
20181;SDS011;10250;50.756;6.172;2023-07-29T08:51:13;7.03;;;1.80;;
20181;SDS011;10250;50.756;6.172;2023-07-29T08:53:15;5.40;;;1.33;;
20181;SDS011;10250;50.756;6.172;2023-07-29T08:55:17;5.67;;;1.83;;
20181;SDS011;10250;50.756;6.172;2023-07-29T08:57:19;4.63;;;1.70;;
20181;SDS011;10250;50.756;6.172;2023-07-29T08:59:21;5.67;;;1.60;;
20181;SDS011;10250;50.756;6.172;2023-07-29T09:01:23;5.60;;;1.67;;
20181;SDS011;10250;50.756;6.172;2023-07-29T09:03:23;5.87;;;1.50;;
20181;SDS011;10250;50.756;6.172;2023-07-29T09:05:24;5.10;;;1.67;;
20181;SDS011;10250;50.756;6.172;2023-07-29T09:07:25;7.97;;;2.23;;
20181;SDS011;10250;50.756;6.172;2023-07-29T09:09:26;6.53;;;1.77;;
20181;SDS011;10250;50.756;6.172;2023-07-29T09:11:27;5.20;;;1.60;;
20181;SDS011;10250;50.756;6.172;2023-07-29T09:13:28;4.40;;;1.50;;
20181;SDS011;10250;50.756;6.172;2023-07-29T09:15:29;6.23;;;1.80;;
20181;SDS011;10250;50.756;6.172;2023-07-29T09:17:32;4.43;;;1.53;;
20181;SDS011;10250;50.756;6.172;2023-07-29T09:19:33;5.77;;;1.57;;
20181;SDS011;10250;50.756;6.172;2023-07-29T09:21:34;5.97;;;1.80;;
20181;SDS011;10250;50.756;6.172;2023-07-29T09:23:39;4.27;;;1.40;;
20181;SDS011;10250;50.756;6.172;2023-07-29T09:25:41;6.73;;;1.63;;
20181;SDS011;10250;50.756;6.172;2023-07-29T09:27:42;7.00;;;1.50;;
20181;SDS011;10250;50.756;6.172;2023-07-29T09:29:43;5.50;;;1.70;;
20181;SDS011;10250;50.756;6.172;2023-07-29T09:31:43;5.33;;;1.60;;
20181;SDS011;10250;50.756;6.172;2023-07-29T09:33:44;4.73;;;1.63;;
20181;SDS011;10250;50.756;6.172;2023-07-29T09:35:45;5.33;;;1.50;;
20181;SDS011;10250;50.756;6.172;2023-07-29T09:37:46;5.90;;;1.57;;
20181;SDS011;10250;50.756;6.172;2023-07-29T09:39:49;7.47;;;1.60;;
20181;SDS011;10250;50.756;6.172;2023-07-29T09:41:50;5.17;;;1.70;;
20181;SDS011;10250;50.756;6.172;2023-07-29T09:43:55;4.43;;;1.53;;
20181;SDS011;10250;50.756;6.172;2023-07-29T09:46:01;8.60;;;2.10;;
20181;SDS011;10250;50.756;6.172;2023-07-29T09:48:03;5.73;;;1.70;;
20181;SDS011;10250;50.756;6.172;2023-07-29T09:50:09;4.40;;;1.57;;
20181;SDS011;10250;50.756;6.172;2023-07-29T09:52:09;6.93;;;1.60;;
20181;SDS011;10250;50.756;6.172;2023-07-29T09:54:10;7.30;;;1.80;;
20181;SDS011;10250;50.756;6.172;2023-07-29T09:56:14;6.30;;;1.50;;
20181;SDS011;10250;50.756;6.172;2023-07-29T09:58:15;6.77;;;1.83;;
20181;SDS011;10250;50.756;6.172;2023-07-29T10:00:26;5.90;;;1.50;;
20181;SDS011;10250;50.756;6.172;2023-07-29T10:02:27;5.30;;;1.67;;
20181;SDS011;10250;50.756;6.172;2023-07-29T10:04:30;5.57;;;1.70;;
20181;SDS011;10250;50.756;6.172;2023-07-29T10:06:32;6.20;;;1.67;;
20181;SDS011;10250;50.756;6.172;2023-07-29T10:08:34;7.00;;;1.77;;
20181;SDS011;10250;50.756;6.172;2023-07-29T10:10:44;5.43;;;1.80;;
20181;SDS011;10250;50.756;6.172;2023-07-29T10:12:45;7.00;;;1.70;;
20181;SDS011;10250;50.756;6.172;2023-07-29T10:14:46;3.77;;;1.43;;
20181;SDS011;10250;50.756;6.172;2023-07-29T10:16:48;7.20;;;1.93;;
20181;SDS011;10250;50.756;6.172;2023-07-29T10:18:50;6.60;;;1.97;;
20181;SDS011;10250;50.756;6.172;2023-07-29T10:20:53;5.27;;;1.67;;
20181;SDS011;10250;50.756;6.172;2023-07-29T10:22:56;7.43;;;1.80;;
20181;SDS011;10250;50.756;6.172;2023-07-29T10:25:02;4.83;;;1.60;;
20181;SDS011;10250;50.756;6.172;2023-07-29T10:27:23;8.23;;;1.73;;
20181;SDS011;10250;50.756;6.172;2023-07-29T10:29:26;5.10;;;1.70;;
20181;SDS011;10250;50.756;6.172;2023-07-29T10:31:32;6.07;;;1.77;;
20181;SDS011;10250;50.756;6.172;2023-07-29T10:33:36;5.33;;;1.40;;
20181;SDS011;10250;50.756;6.172;2023-07-29T10:35:37;9.57;;;1.83;;
20181;SDS011;10250;50.756;6.172;2023-07-29T10:37:38;5.60;;;1.50;;
20181;SDS011;10250;50.756;6.172;2023-07-29T10:39:40;5.73;;;1.80;;
20181;SDS011;10250;50.756;6.172;2023-07-29T10:43:55;4.50;;;1.50;;
20181;SDS011;10250;50.756;6.172;2023-07-29T10:46:14;4.80;;;1.60;;
20181;SDS011;10250;50.756;6.172;2023-07-29T10:50:33;6.50;;;1.90;;
20181;SDS011;10250;50.756;6.172;2023-07-29T10:54:41;6.20;;;1.70;;
20181;SDS011;10250;50.756;6.172;2023-07-29T10:56:46;8.20;;;1.70;;
20181;SDS011;10250;50.756;6.172;2023-07-29T10:58:48;7.60;;;1.60;;
20181;SDS011;10250;50.756;6.172;2023-07-29T11:00:49;5.53;;;1.70;;
20181;SDS011;10250;50.756;6.172;2023-07-29T11:02:59;4.90;;;1.60;;
20181;SDS011;10250;50.756;6.172;2023-07-29T11:05:05;8.03;;;1.63;;
20181;SDS011;10250;50.756;6.172;2023-07-29T11:11:39;2.93;;;1.30;;
20181;SDS011;10250;50.756;6.172;2023-07-29T11:13:40;3.33;;;1.27;;
20181;SDS011;10250;50.756;6.172;2023-07-29T11:15:41;7.53;;;1.60;;
20181;SDS011;10250;50.756;6.172;2023-07-29T11:19:47;6.07;;;1.50;;
20181;SDS011;10250;50.756;6.172;2023-07-29T11:21:49;6.07;;;1.53;;
20181;SDS011;10250;50.756;6.172;2023-07-29T11:23:53;3.13;;;1.37;;
20181;SDS011;10250;50.756;6.172;2023-07-29T11:25:54;5.50;;;1.57;;
20181;SDS011;10250;50.756;6.172;2023-07-29T11:27:55;5.70;;;1.60;;
20181;SDS011;10250;50.756;6.172;2023-07-29T11:29:58;4.50;;;1.37;;
20181;SDS011;10250;50.756;6.172;2023-07-29T11:32:05;8.47;;;2.07;;
20181;SDS011;10250;50.756;6.172;2023-07-29T11:34:09;6.10;;;1.90;;
20181;SDS011;10250;50.756;6.172;2023-07-29T11:36:18;4.83;;;1.63;;
20181;SDS011;10250;50.756;6.172;2023-07-29T11:38:23;3.57;;;1.40;;
20181;SDS011;10250;50.756;6.172;2023-07-29T11:40:24;4.80;;;1.37;;
20181;SDS011;10250;50.756;6.172;2023-07-29T11:42:25;4.93;;;1.60;;
20181;SDS011;10250;50.756;6.172;2023-07-29T11:44:27;5.57;;;1.63;;
20181;SDS011;10250;50.756;6.172;2023-07-29T11:46:28;3.80;;;1.40;;
20181;SDS011;10250;50.756;6.172;2023-07-29T11:48:30;6.93;;;1.97;;
20181;SDS011;10250;50.756;6.172;2023-07-29T11:50:32;5.30;;;1.60;;
20181;SDS011;10250;50.756;6.172;2023-07-29T11:52:33;6.67;;;1.73;;
20181;SDS011;10250;50.756;6.172;2023-07-29T11:54:38;5.73;;;1.60;;
20181;SDS011;10250;50.756;6.172;2023-07-29T11:56:39;5.53;;;1.50;;
20181;SDS011;10250;50.756;6.172;2023-07-29T11:58:40;6.63;;;2.03;;
20181;SDS011;10250;50.756;6.172;2023-07-29T12:00:41;6.03;;;1.70;;
20181;SDS011;10250;50.756;6.172;2023-07-29T12:02:43;5.57;;;1.50;;
20181;SDS011;10250;50.756;6.172;2023-07-29T12:04:47;8.03;;;2.00;;
20181;SDS011;10250;50.756;6.172;2023-07-29T12:06:48;5.47;;;1.60;;
20181;SDS011;10250;50.756;6.172;2023-07-29T12:08:49;5.20;;;1.60;;
20181;SDS011;10250;50.756;6.172;2023-07-29T12:10:50;7.43;;;1.60;;
20181;SDS011;10250;50.756;6.172;2023-07-29T12:12:50;3.83;;;1.60;;
20181;SDS011;10250;50.756;6.172;2023-07-29T12:14:53;6.70;;;1.77;;
20181;SDS011;10250;50.756;6.172;2023-07-29T12:16:55;3.57;;;1.47;;
20181;SDS011;10250;50.756;6.172;2023-07-29T12:18:55;3.43;;;1.40;;
20181;SDS011;10250;50.756;6.172;2023-07-29T12:20:56;5.70;;;1.83;;
20181;SDS011;10250;50.756;6.172;2023-07-29T12:22:57;6.80;;;1.93;;
20181;SDS011;10250;50.756;6.172;2023-07-29T12:25:01;5.97;;;1.60;;
20181;SDS011;10250;50.756;6.172;2023-07-29T12:27:03;7.17;;;1.60;;
20181;SDS011;10250;50.756;6.172;2023-07-29T12:29:13;5.60;;;1.70;;
20181;SDS011;10250;50.756;6.172;2023-07-29T12:31:16;5.57;;;1.60;;
20181;SDS011;10250;50.756;6.172;2023-07-29T12:33:32;7.07;;;2.00;;
20181;SDS011;10250;50.756;6.172;2023-07-29T12:35:36;6.13;;;1.97;;